sensor_id;sensor_type;location;lat;lon;timestamp;pressure;altitude;pressure_sealevel;temperature;humidity
5380;BME280;2713;42.680;23.310;2022-09-30T00:01:52;94736.47;;;18.37;85.15
5380;BME280;2713;42.680;23.310;2022-09-30T00:04:21;94751.59;;;18.30;86.06
5380;BME280;2713;42.680;23.310;2022-09-30T00:06:49;94761.94;;;18.19;85.95
5380;BME280;2713;42.680;23.310;2022-09-30T00:09:18;94748.09;;;18.12;86.76
5380;BME280;2713;42.680;23.310;2022-09-30T00:11:46;94757.75;;;18.07;87.06
5380;BME280;2713;42.680;23.310;2022-09-30T00:14:15;94747.63;;;18.15;86.14
5380;BME280;2713;42.680;23.310;2022-09-30T00:16:43;94752.69;;;18.17;86.34
5380;BME280;2713;42.680;23.310;2022-09-30T00:19:11;94745.13;;;18.09;86.11
5380;BME280;2713;42.680;23.310;2022-09-30T00:21:39;94752.91;;;18.15;86.50
5380;BME280;2713;42.680;23.310;2022-09-30T00:24:06;94754.22;;;18.30;86.02
5380;BME280;2713;42.680;23.310;2022-09-30T00:26:34;94766.44;;;18.36;85.47
5380;BME280;2713;42.680;23.310;2022-09-30T00:29:01;94772.19;;;18.33;84.61
5380;BME280;2713;42.680;23.310;2022-09-30T00:31:31;94763.06;;;18.23;84.26
5380;BME280;2713;42.680;23.310;2022-09-30T00:33:59;94748.63;;;18.26;84.43
5380;BME280;2713;42.680;23.310;2022-09-30T00:36:40;94766.84;;;18.28;85.06
5380;BME280;2713;42.680;23.310;2022-09-30T00:39:10;94761.25;;;18.24;85.04
5380;BME280;2713;42.680;23.310;2022-09-30T00:41:38;94763.75;;;18.19;84.57
5380;BME280;2713;42.680;23.310;2022-09-30T00:44:42;94753.88;;;17.98;86.18
5380;BME280;2713;42.680;23.310;2022-09-30T00:47:24;94748.72;;;18.03;85.33
5380;BME280;2713;42.680;23.310;2022-09-30T00:49:54;94753.56;;;17.83;86.16
5380;BME280;2713;42.680;23.310;2022-09-30T00:52:25;94743.47;;;17.91;86.23
5380;BME280;2713;42.680;23.310;2022-09-30T00:54:54;94752.78;;;17.70;87.33
5380;BME280;2713;42.680;23.310;2022-09-30T00:57:22;94761.78;;;17.74;87.19
5380;BME280;2713;42.680;23.310;2022-09-30T00:59:50;94758.81;;;17.83;86.62
5380;BME280;2713;42.680;23.310;2022-09-30T01:02:18;94759.03;;;17.81;86.49
5380;BME280;2713;42.680;23.310;2022-09-30T01:04:45;94749.78;;;17.90;85.83
5380;BME280;2713;42.680;23.310;2022-09-30T01:07:13;94754.03;;;17.80;86.00
5380;BME280;2713;42.680;23.310;2022-09-30T01:09:42;94753.34;;;17.84;85.35
5380;BME280;2713;42.680;23.310;2022-09-30T01:12:13;94756.06;;;17.78;86.98
5380;BME280;2713;42.680;23.310;2022-09-30T01:14:42;94749.13;;;17.60;87.46
5380;BME280;2713;42.680;23.310;2022-09-30T01:17:16;94749.00;;;17.66;88.09
5380;BME280;2713;42.680;23.310;2022-09-30T01:22:43;94759.38;;;17.85;86.74
5380;BME280;2713;42.680;23.310;2022-09-30T01:25:36;94764.28;;;17.93;85.63
5380;BME280;2713;42.680;23.310;2022-09-30T01:34:16;94756.75;;;17.85;86.70
5380;BME280;2713;42.680;23.310;2022-09-30T01:37:00;94757.53;;;17.85;85.92
5380;BME280;2713;42.680;23.310;2022-09-30T01:39:37;94760.88;;;17.81;85.88
5380;BME280;2713;42.680;23.310;2022-09-30T01:42:13;94765.47;;;17.73;86.18
5380;BME280;2713;42.680;23.310;2022-09-30T01:44:49;94768.66;;;17.76;86.23
5380;BME280;2713;42.680;23.310;2022-09-30T01:47:23;94760.50;;;17.89;85.74
5380;BME280;2713;42.680;23.310;2022-09-30T01:49:57;94757.53;;;17.85;86.13
5380;BME280;2713;42.680;23.310;2022-09-30T01:52:31;94760.41;;;17.84;86.16
5380;BME280;2713;42.680;23.310;2022-09-30T01:55:04;94756.84;;;17.90;85.70
5380;BME280;2713;42.680;23.310;2022-09-30T01:57:41;94754.31;;;17.95;84.88
5380;BME280;2713;42.680;23.310;2022-09-30T02:00:12;94742.50;;;17.69;85.58
5380;BME280;2713;42.680;23.310;2022-09-30T02:02:43;94752.19;;;17.68;85.70
5380;BME280;2713;42.680;23.310;2022-09-30T02:05:17;94756.53;;;17.74;86.50
5380;BME280;2713;42.680;23.310;2022-09-30T02:07:48;94760.56;;;17.77;87.18
5380;BME280;2713;42.680;23.310;2022-09-30T02:10:19;94750.03;;;17.77;87.30
5380;BME280;2713;42.680;23.310;2022-09-30T02:12:52;94769.66;;;17.74;87.48
5380;BME280;2713;42.680;23.310;2022-09-30T02:15:24;94774.72;;;17.76;88.01
5380;BME280;2713;42.680;23.310;2022-09-30T02:17:57;94772.75;;;17.83;87.86
5380;BME280;2713;42.680;23.310;2022-09-30T02:20:30;94768.31;;;17.84;88.03
5380;BME280;2713;42.680;23.310;2022-09-30T02:23:03;94764.75;;;17.78;88.13
5380;BME280;2713;42.680;23.310;2022-09-30T02:25:34;94775.97;;;17.73;88.08
5380;BME280;2713;42.680;23.310;2022-09-30T02:28:06;94768.31;;;17.60;88.54
5380;BME280;2713;42.680;23.310;2022-09-30T02:30:36;94783.53;;;17.58;89.48
5380;BME280;2713;42.680;23.310;2022-09-30T02:33:07;94771.28;;;17.52;89.03
5380;BME280;2713;42.680;23.310;2022-09-30T02:35:44;94784.31;;;17.59;89.09
5380;BME280;2713;42.680;23.310;2022-09-30T02:38:15;94773.44;;;17.55;89.52
5380;BME280;2713;42.680;23.310;2022-09-30T02:40:46;94770.38;;;17.58;89.73
5380;BME280;2713;42.680;23.310;2022-09-30T02:43:15;94771.41;;;17.57;89.38
5380;BME280;2713;42.680;23.310;2022-09-30T02:45:48;94763.84;;;17.49;90.30
5380;BME280;2713;42.680;23.310;2022-09-30T02:48:25;94768.19;;;17.55;89.64
5380;BME280;2713;42.680;23.310;2022-09-30T02:50:59;94768.50;;;17.47;90.24
5380;BME280;2713;42.680;23.310;2022-09-30T02:53:33;94776.53;;;17.52;89.63
5380;BME280;2713;42.680;23.310;2022-09-30T02:56:09;94769.56;;;17.46;90.22
5380;BME280;2713;42.680;23.310;2022-09-30T02:58:39;94781.44;;;17.49;90.37
5380;BME280;2713;42.680;23.310;2022-09-30T03:01:09;94775.63;;;17.58;89.78
5380;BME280;2713;42.680;23.310;2022-09-30T03:03:41;94784.06;;;17.60;89.71
5380;BME280;2713;42.680;23.310;2022-09-30T03:06:11;94789.59;;;17.70;89.21
5380;BME280;2713;42.680;23.310;2022-09-30T03:08:38;94798.50;;;17.69;88.78
5380;BME280;2713;42.680;23.310;2022-09-30T03:11:06;94793.47;;;17.68;87.78
5380;BME280;2713;42.680;23.310;2022-09-30T03:14:00;94783.72;;;17.45;88.92
5380;BME280;2713;42.680;23.310;2022-09-30T03:16:43;94795.34;;;17.26;90.11
5380;BME280;2713;42.680;23.310;2022-09-30T03:19:26;94793.63;;;17.20;90.07
5380;BME280;2713;42.680;23.310;2022-09-30T03:22:15;94794.31;;;17.15;90.47
5380;BME280;2713;42.680;23.310;2022-09-30T03:25:05;94787.59;;;17.31;89.47
5380;BME280;2713;42.680;23.310;2022-09-30T03:27:43;94790.44;;;17.41;88.62
5380;BME280;2713;42.680;23.310;2022-09-30T03:30:16;94792.53;;;17.39;88.61
5380;BME280;2713;42.680;23.310;2022-09-30T03:32:57;94795.78;;;17.23;89.44
5380;BME280;2713;42.680;23.310;2022-09-30T03:35:29;94803.59;;;17.41;88.82
5380;BME280;2713;42.680;23.310;2022-09-30T03:38:06;94790.56;;;17.35;89.06
5380;BME280;2713;42.680;23.310;2022-09-30T03:40:41;94791.94;;;17.37;88.95
5380;BME280;2713;42.680;23.310;2022-09-30T03:43:17;94786.22;;;17.29;89.02
5380;BME280;2713;42.680;23.310;2022-09-30T03:45:50;94791.03;;;17.32;89.11
5380;BME280;2713;42.680;23.310;2022-09-30T03:48:21;94802.66;;;17.24;89.08
5380;BME280;2713;42.680;23.310;2022-09-30T03:50:49;94823.13;;;17.34;88.97
5380;BME280;2713;42.680;23.310;2022-09-30T03:53:18;94812.91;;;17.14;89.86
5380;BME280;2713;42.680;23.310;2022-09-30T03:55:47;94811.44;;;17.18;89.07
5380;BME280;2713;42.680;23.310;2022-09-30T03:58:16;94816.81;;;17.23;89.38
5380;BME280;2713;42.680;23.310;2022-09-30T04:00:46;94826.09;;;17.37;89.14
5380;BME280;2713;42.680;23.310;2022-09-30T04:03:14;94820.03;;;17.25;89.69
5380;BME280;2713;42.680;23.310;2022-09-30T04:05:41;94824.25;;;17.38;89.22
5380;BME280;2713;42.680;23.310;2022-09-30T04:08:09;94824.81;;;17.28;89.54
5380;BME280;2713;42.680;23.310;2022-09-30T04:10:38;94820.72;;;17.32;89.44
5380;BME280;2713;42.680;23.310;2022-09-30T04:13:05;94815.25;;;17.45;89.04
5380;BME280;2713;42.680;23.310;2022-09-30T04:15:32;94815.25;;;17.45;88.80
5380;BME280;2713;42.680;23.310;2022-09-30T04:17:59;94810.81;;;17.46;88.37
5380;BME280;2713;42.680;23.310;2022-09-30T04:20:27;94815.13;;;17.52;88.11
5380;BME280;2713;42.680;23.310;2022-09-30T04:22:56;94813.75;;;17.38;88.89
5380;BME280;2713;42.680;23.310;2022-09-30T04:25:23;94812.72;;;17.27;89.41
5380;BME280;2713;42.680;23.310;2022-09-30T04:27:52;94789.19;;;17.32;89.26
5380;BME280;2713;42.680;23.310;2022-09-30T04:30:20;94813.31;;;17.29;89.04
5380;BME280;2713;42.680;23.310;2022-09-30T04:32:47;94827.56;;;17.33;89.21
5380;BME280;2713;42.680;23.310;2022-09-30T04:35:14;94837.66;;;17.36;89.25
5380;BME280;2713;42.680;23.310;2022-09-30T04:37:42;94831.44;;;17.31;89.31
5380;BME280;2713;42.680;23.310;2022-09-30T04:40:09;94831.91;;;17.28;89.34
5380;BME280;2713;42.680;23.310;2022-09-30T04:42:37;94812.72;;;17.15;89.69
5380;BME280;2713;42.680;23.310;2022-09-30T04:45:08;94837.38;;;17.26;89.52
5380;BME280;2713;42.680;23.310;2022-09-30T04:47:35;94835.53;;;17.27;89.85
5380;BME280;2713;42.680;23.310;2022-09-30T04:50:02;94847.09;;;17.37;89.62
5380;BME280;2713;42.680;23.310;2022-09-30T04:52:30;94848.81;;;17.43;89.25
5380;BME280;2713;42.680;23.310;2022-09-30T04:54:57;94858.31;;;17.44;89.49
5380;BME280;2713;42.680;23.310;2022-09-30T04:57:24;94869.31;;;17.53;89.29
5380;BME280;2713;42.680;23.310;2022-09-30T04:59:51;94860.31;;;17.72;88.84
5380;BME280;2713;42.680;23.310;2022-09-30T05:02:20;94882.72;;;17.74;87.91
5380;BME280;2713;42.680;23.310;2022-09-30T05:04:46;94872.56;;;17.78;87.20
5380;BME280;2713;42.680;23.310;2022-09-30T05:07:13;94876.66;;;17.62;87.53
5380;BME280;2713;42.680;23.310;2022-09-30T05:09:40;94862.44;;;17.52;87.83
5380;BME280;2713;42.680;23.310;2022-09-30T05:12:08;94860.44;;;17.24;89.24
5380;BME280;2713;42.680;23.310;2022-09-30T05:14:34;94872.38;;;17.38;88.49
5380;BME280;2713;42.680;23.310;2022-09-30T05:17:01;94865.19;;;17.04;90.09
5380;BME280;2713;42.680;23.310;2022-09-30T05:19:30;94885.09;;;17.23;90.21
5380;BME280;2713;42.680;23.310;2022-09-30T05:21:57;94888.53;;;17.12;90.57
5380;BME280;2713;42.680;23.310;2022-09-30T05:24:24;94882.81;;;17.15;90.95
5380;BME280;2713;42.680;23.310;2022-09-30T05:26:51;94890.88;;;17.02;91.43
5380;BME280;2713;42.680;23.310;2022-09-30T05:29:18;94889.56;;;16.93;92.57
5380;BME280;2713;42.680;23.310;2022-09-30T05:31:45;94877.56;;;16.85;91.72
5380;BME280;2713;42.680;23.310;2022-09-30T05:34:12;94881.44;;;16.64;92.35
5380;BME280;2713;42.680;23.310;2022-09-30T05:36:43;94893.03;;;16.75;92.12
5380;BME280;2713;42.680;23.310;2022-09-30T05:39:10;94895.88;;;17.33;98.25
5380;BME280;2713;42.680;23.310;2022-09-30T05:41:37;94912.59;;;17.50;91.57
5380;BME280;2713;42.680;23.310;2022-09-30T05:44:04;94904.81;;;17.32;90.22
5380;BME280;2713;42.680;23.310;2022-09-30T05:46:33;94909.66;;;17.17;90.96
5380;BME280;2713;42.680;23.310;2022-09-30T05:49:00;94919.16;;;17.18;90.68
5380;BME280;2713;42.680;23.310;2022-09-30T05:51:27;94899.78;;;17.01;90.73
5380;BME280;2713;42.680;23.310;2022-09-30T05:53:55;94920.91;;;17.06;90.55
5380;BME280;2713;42.680;23.310;2022-09-30T05:56:22;94908.50;;;17.13;90.27
5380;BME280;2713;42.680;23.310;2022-09-30T05:58:49;94915.09;;;17.04;91.36
5380;BME280;2713;42.680;23.310;2022-09-30T06:01:16;94921.97;;;17.16;90.28
5380;BME280;2713;42.680;23.310;2022-09-30T06:03:44;94921.25;;;17.09;90.37
5380;BME280;2713;42.680;23.310;2022-09-30T06:06:12;94922.06;;;17.10;90.27
5380;BME280;2713;42.680;23.310;2022-09-30T06:08:40;94922.88;;;16.81;90.99
5380;BME280;2713;42.680;23.310;2022-09-30T06:11:11;94916.94;;;16.85;91.24
5380;BME280;2713;42.680;23.310;2022-09-30T06:13:39;94924.78;;;16.73;91.57
5380;BME280;2713;42.680;23.310;2022-09-30T06:16:07;94921.63;;;16.83;91.88
5380;BME280;2713;42.680;23.310;2022-09-30T06:18:35;94928.56;;;16.78;92.10
5380;BME280;2713;42.680;23.310;2022-09-30T06:21:06;94931.75;;;16.80;93.01
5380;BME280;2713;42.680;23.310;2022-09-30T06:23:34;94932.56;;;16.62;93.60
5380;BME280;2713;42.680;23.310;2022-09-30T06:26:03;94932.56;;;16.80;93.85
5380;BME280;2713;42.680;23.310;2022-09-30T06:28:32;94943.91;;;16.92;93.08
5380;BME280;2713;42.680;23.310;2022-09-30T06:31:00;94930.94;;;16.79;93.42
5380;BME280;2713;42.680;23.310;2022-09-30T06:33:27;94942.28;;;17.09;92.62
5380;BME280;2713;42.680;23.310;2022-09-30T06:35:54;94938.09;;;17.20;92.69
5380;BME280;2713;42.680;23.310;2022-09-30T06:38:22;94959.06;;;17.38;91.69
5380;BME280;2713;42.680;23.310;2022-09-30T06:40:51;94940.88;;;17.25;92.13
5380;BME280;2713;42.680;23.310;2022-09-30T06:43:18;94953.25;;;17.36;92.17
5380;BME280;2713;42.680;23.310;2022-09-30T06:45:47;94965.97;;;17.51;92.30
5380;BME280;2713;42.680;23.310;2022-09-30T06:48:16;94961.50;;;17.51;91.69
5380;BME280;2713;42.680;23.310;2022-09-30T06:50:43;94970.94;;;17.59;89.58
5380;BME280;2713;42.680;23.310;2022-09-30T06:53:11;94980.81;;;17.75;89.19
5380;BME280;2713;42.680;23.310;2022-09-30T06:55:38;94981.81;;;17.14;91.42
5380;BME280;2713;42.680;23.310;2022-09-30T06:58:07;94995.22;;;17.24;91.46
5380;BME280;2713;42.680;23.310;2022-09-30T07:00:36;94992.59;;;17.54;90.23
5380;BME280;2713;42.680;23.310;2022-09-30T07:03:05;95005.16;;;17.70;88.34
5380;BME280;2713;42.680;23.310;2022-09-30T07:05:34;94996.56;;;17.63;88.43
5380;BME280;2713;42.680;23.310;2022-09-30T07:08:02;94982.97;;;17.78;88.39
5380;BME280;2713;42.680;23.310;2022-09-30T07:10:29;94998.00;;;17.89;88.13
5380;BME280;2713;42.680;23.310;2022-09-30T07:12:56;94998.16;;;18.29;85.98
5380;BME280;2713;42.680;23.310;2022-09-30T07:15:26;95012.50;;;18.56;84.83
5380;BME280;2713;42.680;23.310;2022-09-30T07:17:54;95011.13;;;18.65;83.92
5380;BME280;2713;42.680;23.310;2022-09-30T07:20:23;94997.13;;;18.30;85.21
5380;BME280;2713;42.680;23.310;2022-09-30T07:22:51;95015.69;;;18.35;84.97
5380;BME280;2713;42.680;23.310;2022-09-30T07:25:18;95000.47;;;18.49;84.69
5380;BME280;2713;42.680;23.310;2022-09-30T07:27:44;95007.69;;;18.53;85.32
5380;BME280;2713;42.680;23.310;2022-09-30T07:30:12;95018.44;;;18.63;84.75
5380;BME280;2713;42.680;23.310;2022-09-30T07:32:39;95020.72;;;18.48;84.56
5380;BME280;2713;42.680;23.310;2022-09-30T07:35:06;95024.94;;;18.49;85.09
5380;BME280;2713;42.680;23.310;2022-09-30T07:37:34;95023.16;;;18.61;84.37
5380;BME280;2713;42.680;23.310;2022-09-30T07:40:03;95019.34;;;18.81;83.86
5380;BME280;2713;42.680;23.310;2022-09-30T07:42:31;95021.59;;;19.12;82.70
5380;BME280;2713;42.680;23.310;2022-09-30T07:44:58;95025.00;;;19.24;82.13
5380;BME280;2713;42.680;23.310;2022-09-30T07:47:25;95017.53;;;19.72;80.75
5380;BME280;2713;42.680;23.310;2022-09-30T07:49:52;95016.78;;;20.22;78.39
5380;BME280;2713;42.680;23.310;2022-09-30T07:52:19;95010.38;;;20.68;74.51
5380;BME280;2713;42.680;23.310;2022-09-30T07:54:47;95018.63;;;21.53;72.30
5380;BME280;2713;42.680;23.310;2022-09-30T07:57:15;95019.06;;;21.94;71.03
5380;BME280;2713;42.680;23.310;2022-09-30T07:59:42;95032.34;;;22.26;68.09
5380;BME280;2713;42.680;23.310;2022-09-30T08:02:13;95024.47;;;22.36;68.89
5380;BME280;2713;42.680;23.310;2022-09-30T08:04:40;95032.84;;;22.59;67.74
5380;BME280;2713;42.680;23.310;2022-09-30T08:07:07;95039.38;;;22.79;66.66
5380;BME280;2713;42.680;23.310;2022-09-30T08:09:35;95043.28;;;23.13;64.89
5380;BME280;2713;42.680;23.310;2022-09-30T08:12:03;95040.19;;;23.31;64.77
5380;BME280;2713;42.680;23.310;2022-09-30T08:14:31;95050.94;;;23.56;63.29
5380;BME280;2713;42.680;23.310;2022-09-30T08:16:58;95051.50;;;23.68;62.30
5380;BME280;2713;42.680;23.310;2022-09-30T08:19:27;95043.56;;;23.84;61.79
5380;BME280;2713;42.680;23.310;2022-09-30T08:21:55;95051.91;;;24.12;60.72
5380;BME280;2713;42.680;23.310;2022-09-30T08:24:22;95062.06;;;23.48;61.93
5380;BME280;2713;42.680;23.310;2022-09-30T08:26:50;95056.03;;;23.63;62.84
5380;BME280;2713;42.680;23.310;2022-09-30T08:29:18;95054.28;;;24.04;61.33
5380;BME280;2713;42.680;23.310;2022-09-30T08:31:45;95058.06;;;24.38;60.53
5380;BME280;2713;42.680;23.310;2022-09-30T08:34:12;95063.13;;;24.55;60.37
5380;BME280;2713;42.680;23.310;2022-09-30T08:36:39;95058.03;;;24.63;59.77
5380;BME280;2713;42.680;23.310;2022-09-30T08:39:06;95053.81;;;24.88;59.33
5380;BME280;2713;42.680;23.310;2022-09-30T08:41:46;95053.81;;;24.93;58.04
5380;BME280;2713;42.680;23.310;2022-09-30T08:44:31;95053.53;;;24.79;58.33
5380;BME280;2713;42.680;23.310;2022-09-30T08:47:09;95065.75;;;24.90;58.48
5380;BME280;2713;42.680;23.310;2022-09-30T08:49:48;95060.97;;;24.67;58.49
5380;BME280;2713;42.680;23.310;2022-09-30T08:52:22;95057.25;;;24.48;59.02
5380;BME280;2713;42.680;23.310;2022-09-30T08:54:52;95053.00;;;24.72;57.54
5380;BME280;2713;42.680;23.310;2022-09-30T08:57:20;95059.38;;;24.91;56.68
5380;BME280;2713;42.680;23.310;2022-09-30T08:59:54;95061.25;;;24.91;57.87
5380;BME280;2713;42.680;23.310;2022-09-30T09:02:25;95064.69;;;25.06;57.42
5380;BME280;2713;42.680;23.310;2022-09-30T09:04:56;95063.81;;;25.31;57.32
5380;BME280;2713;42.680;23.310;2022-09-30T09:07:36;95076.00;;;25.52;57.46
5380;BME280;2713;42.680;23.310;2022-09-30T09:10:16;95080.78;;;25.45;56.64
5380;BME280;2713;42.680;23.310;2022-09-30T09:12:53;95068.03;;;25.57;57.29
5380;BME280;2713;42.680;23.310;2022-09-30T09:15:29;95047.56;;;25.38;56.88
5380;BME280;2713;42.680;23.310;2022-09-30T09:18:20;95062.75;;;25.32;55.71
5380;BME280;2713;42.680;23.310;2022-09-30T09:20:55;95070.50;;;25.23;56.97
5380;BME280;2713;42.680;23.310;2022-09-30T09:23:30;95055.31;;;25.34;57.65
5380;BME280;2713;42.680;23.310;2022-09-30T09:25:58;95078.09;;;25.70;55.69
5380;BME280;2713;42.680;23.310;2022-09-30T09:28:34;95082.00;;;25.83;54.13
5380;BME280;2713;42.680;23.310;2022-09-30T09:31:11;95073.84;;;25.64;52.73
5380;BME280;2713;42.680;23.310;2022-09-30T09:33:42;95065.72;;;25.90;53.17
5380;BME280;2713;42.680;23.310;2022-09-30T09:36:21;95071.47;;;26.12;52.94
5380;BME280;2713;42.680;23.310;2022-09-30T09:39:10;95060.13;;;25.91;53.02
5380;BME280;2713;42.680;23.310;2022-09-30T09:41:47;95055.56;;;25.97;52.80
5380;BME280;2713;42.680;23.310;2022-09-30T09:53:58;95057.81;;;26.62;52.30
5380;BME280;2713;42.680;23.310;2022-09-30T09:56:28;95058.31;;;26.64;51.76
5380;BME280;2713;42.680;23.310;2022-09-30T09:59:12;95054.56;;;26.70;50.01
5380;BME280;2713;42.680;23.310;2022-09-30T10:01:41;95065.50;;;26.69;49.47
5380;BME280;2713;42.680;23.310;2022-09-30T10:04:13;95071.13;;;26.67;47.66
5380;BME280;2713;42.680;23.310;2022-09-30T10:06:46;95074.31;;;26.31;46.82
5380;BME280;2713;42.680;23.310;2022-09-30T10:09:32;95071.03;;;26.44;47.64
5380;BME280;2713;42.680;23.310;2022-09-30T10:12:26;95073.88;;;26.52;47.44
5380;BME280;2713;42.680;23.310;2022-09-30T10:14:59;95066.94;;;26.56;46.97
5380;BME280;2713;42.680;23.310;2022-09-30T10:17:29;95052.00;;;26.55;47.32
5380;BME280;2713;42.680;23.310;2022-09-30T10:20:00;95059.25;;;26.50;44.70
5380;BME280;2713;42.680;23.310;2022-09-30T10:22:30;95054.06;;;26.63;44.80
5380;BME280;2713;42.680;23.310;2022-09-30T10:25:21;95048.53;;;26.55;44.69
5380;BME280;2713;42.680;23.310;2022-09-30T10:27:52;95049.00;;;26.62;43.76
5380;BME280;2713;42.680;23.310;2022-09-30T10:30:33;95044.97;;;26.64;44.21
5380;BME280;2713;42.680;23.310;2022-09-30T10:33:02;95029.75;;;26.70;45.50
5380;BME280;2713;42.680;23.310;2022-09-30T10:35:29;95038.47;;;26.81;44.38
5380;BME280;2713;42.680;23.310;2022-09-30T10:37:58;95028.34;;;26.78;44.04
5380;BME280;2713;42.680;23.310;2022-09-30T10:40:29;95035.31;;;26.73;44.68
5380;BME280;2713;42.680;23.310;2022-09-30T10:42:56;95035.81;;;26.76;44.19
5380;BME280;2713;42.680;23.310;2022-09-30T10:45:28;95035.69;;;26.62;42.62
5380;BME280;2713;42.680;23.310;2022-09-30T10:48:06;95036.56;;;26.86;43.20
5380;BME280;2713;42.680;23.310;2022-09-30T10:50:48;95039.47;;;26.90;43.64
5380;BME280;2713;42.680;23.310;2022-09-30T10:53:20;95038.88;;;26.93;45.19
5380;BME280;2713;42.680;23.310;2022-09-30T10:55:50;95038.47;;;26.81;42.33
5380;BME280;2713;42.680;23.310;2022-09-30T10:58:29;95037.00;;;26.98;41.66
5380;BME280;2713;42.680;23.310;2022-09-30T11:01:03;95039.00;;;26.83;39.90
5380;BME280;2713;42.680;23.310;2022-09-30T11:03:36;95037.34;;;26.87;40.75
5380;BME280;2713;42.680;23.310;2022-09-30T11:06:10;95036.91;;;26.75;42.68
5380;BME280;2713;42.680;23.310;2022-09-30T11:08:43;95032.19;;;26.66;42.67
5380;BME280;2713;42.680;23.310;2022-09-30T11:11:19;95038.63;;;26.60;43.16
5380;BME280;2713;42.680;23.310;2022-09-30T11:13:49;95039.44;;;26.61;41.63
5380;BME280;2713;42.680;23.310;2022-09-30T11:16:26;95041.00;;;26.62;41.56
5380;BME280;2713;42.680;23.310;2022-09-30T11:19:00;95039.19;;;26.57;40.83
5380;BME280;2713;42.680;23.310;2022-09-30T11:21:33;95040.50;;;26.60;41.77
5380;BME280;2713;42.680;23.310;2022-09-30T11:24:10;95028.06;;;26.79;41.21
5380;BME280;2713;42.680;23.310;2022-09-30T11:26:48;95032.31;;;26.80;39.72
5380;BME280;2713;42.680;23.310;2022-09-30T11:29:39;95031.38;;;26.66;39.91
5380;BME280;2713;42.680;23.310;2022-09-30T11:32:17;95032.75;;;26.63;40.85
5380;BME280;2713;42.680;23.310;2022-09-30T11:34:55;95027.41;;;26.63;40.25
5380;BME280;2713;42.680;23.310;2022-09-30T11:37:34;95032.69;;;26.68;40.55
5380;BME280;2713;42.680;23.310;2022-09-30T11:40:28;95041.06;;;26.57;38.55
5380;BME280;2713;42.680;23.310;2022-09-30T11:43:01;95039.72;;;26.54;38.33
5380;BME280;2713;42.680;23.310;2022-09-30T11:45:40;95039.06;;;26.72;37.69
5380;BME280;2713;42.680;23.310;2022-09-30T11:48:23;95034.97;;;26.51;38.65
5380;BME280;2713;42.680;23.310;2022-09-30T11:51:01;95041.16;;;26.76;38.31
5380;BME280;2713;42.680;23.310;2022-09-30T11:53:45;95039.66;;;26.64;39.19
5380;BME280;2713;42.680;23.310;2022-09-30T11:56:29;95032.03;;;26.53;38.75
5380;BME280;2713;42.680;23.310;2022-09-30T11:59:06;95034.53;;;26.39;37.86
5380;BME280;2713;42.680;23.310;2022-09-30T12:01:40;95048.38;;;26.41;38.99
5380;BME280;2713;42.680;23.310;2022-09-30T12:04:12;95041.50;;;26.35;39.04
5380;BME280;2713;42.680;23.310;2022-09-30T12:06:43;95039.50;;;26.12;39.11
5380;BME280;2713;42.680;23.310;2022-09-30T12:09:15;95040.63;;;26.01;39.92
5380;BME280;2713;42.680;23.310;2022-09-30T12:11:49;95051.84;;;25.98;39.74
5380;BME280;2713;42.680;23.310;2022-09-30T12:14:25;95045.22;;;25.90;40.37
5380;BME280;2713;42.680;23.310;2022-09-30T12:16:55;95049.13;;;26.08;40.61
5380;BME280;2713;42.680;23.310;2022-09-30T12:19:28;95053.06;;;26.15;40.77
5380;BME280;2713;42.680;23.310;2022-09-30T12:22:00;95060.53;;;26.18;40.69
5380;BME280;2713;42.680;23.310;2022-09-30T12:24:34;95050.06;;;26.27;40.37
5380;BME280;2713;42.680;23.310;2022-09-30T12:27:03;95052.72;;;26.32;40.78
5380;BME280;2713;42.680;23.310;2022-09-30T12:29:35;95052.97;;;26.36;39.52
5380;BME280;2713;42.680;23.310;2022-09-30T12:35:35;95061.78;;;26.31;39.98
5380;BME280;2713;42.680;23.310;2022-09-30T12:38:15;95061.59;;;26.17;40.29
5380;BME280;2713;42.680;23.310;2022-09-30T12:40:54;95057.66;;;26.05;40.46
5380;BME280;2713;42.680;23.310;2022-09-30T12:43:51;95058.16;;;26.07;41.22
5380;BME280;2713;42.680;23.310;2022-09-30T12:46:27;95062.94;;;26.15;39.97
5380;BME280;2713;42.680;23.310;2022-09-30T12:49:09;95064.03;;;26.09;40.49
5380;BME280;2713;42.680;23.310;2022-09-30T12:51:41;95061.69;;;25.97;39.86
5380;BME280;2713;42.680;23.310;2022-09-30T12:54:12;95059.31;;;25.96;39.87
5380;BME280;2713;42.680;23.310;2022-09-30T12:56:41;95064.66;;;25.96;40.00
5380;BME280;2713;42.680;23.310;2022-09-30T12:59:09;95065.16;;;25.93;40.06
5380;BME280;2713;42.680;23.310;2022-09-30T13:01:39;95073.47;;;25.91;39.99
5380;BME280;2713;42.680;23.310;2022-09-30T13:04:29;95069.44;;;25.94;39.98
5380;BME280;2713;42.680;23.310;2022-09-30T13:07:08;95062.00;;;25.96;40.40
5380;BME280;2713;42.680;23.310;2022-09-30T13:09:55;95071.84;;;25.95;38.96
5380;BME280;2713;42.680;23.310;2022-09-30T13:12:24;95057.47;;;25.86;39.73
5380;BME280;2713;42.680;23.310;2022-09-30T13:15:22;95057.16;;;25.98;38.92
5380;BME280;2713;42.680;23.310;2022-09-30T13:21:18;95052.59;;;26.03;40.13
5380;BME280;2713;42.680;23.310;2022-09-30T13:23:47;95059.78;;;26.08;39.72
5380;BME280;2713;42.680;23.310;2022-09-30T13:26:33;95060.03;;;26.06;38.97
5380;BME280;2713;42.680;23.310;2022-09-30T13:29:35;95067.22;;;26.11;39.44
5380;BME280;2713;42.680;23.310;2022-09-30T13:32:05;95071.53;;;26.02;38.86
5380;BME280;2713;42.680;23.310;2022-09-30T13:34:52;95073.69;;;25.95;38.22
5380;BME280;2713;42.680;23.310;2022-09-30T13:37:31;95073.16;;;25.98;38.28
5380;BME280;2713;42.680;23.310;2022-09-30T13:39:59;95072.88;;;25.99;38.48
5380;BME280;2713;42.680;23.310;2022-09-30T13:42:31;95076.31;;;26.05;38.63
5380;BME280;2713;42.680;23.310;2022-09-30T13:45:05;95074.19;;;26.02;38.31
5380;BME280;2713;42.680;23.310;2022-09-30T13:47:38;95080.63;;;25.96;38.98
5380;BME280;2713;42.680;23.310;2022-09-30T13:50:13;95075.06;;;25.92;38.31
5380;BME280;2713;42.680;23.310;2022-09-30T13:52:41;95079.28;;;25.98;38.77
5380;BME280;2713;42.680;23.310;2022-09-30T13:55:16;95082.19;;;26.02;39.40
5380;BME280;2713;42.680;23.310;2022-09-30T13:57:53;95080.09;;;25.94;37.84
5380;BME280;2713;42.680;23.310;2022-09-30T14:00:32;95077.22;;;25.85;38.27
5380;BME280;2713;42.680;23.310;2022-09-30T14:03:15;95070.25;;;25.89;38.40